Time;durP1;ratioP1;P1;durP2;ratioP2;P2;SDS_P1;SDS_P2;PMS_P1;PMS_P2;Temp;Humidity;BMP_temperature;BMP_pressure;BME280_temperature;BME280_humidity;BME280_pressure;Samples;Min_cycle;Max_cycle;Signal;HPM_P1;HPM_P2
2021/05/13 00:00:53;;;;;;;6.10;4.43;;;;;;;10.43;100.00;97490.00;5093607;28;20205;-68
2021/05/13 00:03:19;;;;;;;8.67;5.10;;;;;;;10.40;100.00;97488.44;5093772;28;20241;-66
2021/05/13 00:05:45;;;;;;;5.20;4.70;;;;;;;10.37;100.00;97482.53;5094264;28;20583;-68
2021/05/13 00:08:11;;;;;;;6.10;4.67;;;;;;;10.34;100.00;97488.09;5094253;28;20286;-66
2021/05/13 00:10:38;;;;;;;4.90;4.40;;;;;;;10.29;100.00;97477.84;5094034;28;20208;-67
2021/05/13 00:13:06;;;;;;;5.30;4.80;;;;;;;10.25;100.00;97480.88;5094294;28;20217;-67
2021/05/13 00:15:35;;;;;;;5.73;5.23;;;;;;;10.19;100.00;97476.06;5094205;28;20209;-67
2021/05/13 00:18:02;;;;;;;5.00;4.50;;;;;;;10.17;100.00;97475.34;5094139;28;20580;-70
2021/05/13 00:20:31;;;;;;;5.47;4.60;;;;;;;10.16;100.00;97471.84;5094076;28;20215;-68
2021/05/13 00:22:57;;;;;;;5.50;4.97;;;;;;;10.13;100.00;97466.84;5093766;28;20226;-69
2021/05/13 00:25:24;;;;;;;6.57;4.87;;;;;;;10.16;100.00;97471.03;5094057;28;20220;-69
2021/05/13 00:27:51;;;;;;;5.73;5.20;;;;;;;10.17;100.00;97463.00;5091991;28;20699;-69
2021/05/13 00:30:18;;;;;;;7.07;4.80;;;;;;;10.17;100.00;97468.28;5093597;28;20210;-69
2021/05/13 00:32:45;;;;;;;6.57;5.60;;;;;;;10.18;100.00;97461.19;5093784;28;20207;-69
2021/05/13 00:35:13;;;;;;;5.87;5.20;;;;;;;10.21;100.00;97463.59;5093958;28;20212;-70
2021/05/13 00:37:39;;;;;;;6.57;5.00;;;;;;;10.18;100.00;97453.25;5093534;28;20254;-71
2021/05/13 00:40:08;;;;;;;7.30;4.87;;;;;;;10.22;100.00;97450.25;5093815;28;20203;-70
2021/05/13 00:42:34;;;;;;;5.73;5.17;;;;;;;10.23;100.00;97448.47;5093640;28;20209;-70
2021/05/13 00:45:01;;;;;;;5.63;5.03;;;;;;;10.24;100.00;97458.06;5093784;28;20214;-72
2021/05/13 00:47:29;;;;;;;6.03;5.40;;;;;;;10.26;100.00;97458.78;5093682;28;20587;-71
2021/05/13 00:49:55;;;;;;;7.03;5.07;;;;;;;10.26;100.00;97461.41;5093681;28;20218;-71
2021/05/13 00:52:22;;;;;;;6.13;5.50;;;;;;;10.27;100.00;97463.94;5093171;28;20212;-71
2021/05/13 00:54:49;;;;;;;6.33;5.23;;;;;;;10.25;100.00;97465.03;5091922;28;20213;-71
2021/05/13 00:57:16;;;;;;;6.13;4.90;;;;;;;10.21;100.00;97464.44;5093490;28;20209;-71
2021/05/13 00:59:45;;;;;;;6.00;5.40;;;;;;;10.19;100.00;97468.16;5092783;28;20218;-71
2021/05/13 01:02:13;;;;;;;5.30;4.40;;;;;;;10.17;100.00;97468.28;5093010;28;20216;-72
2021/05/13 01:04:39;;;;;;;5.17;4.30;;;;;;;10.16;100.00;97469.22;5093094;28;20228;-71
2021/05/13 01:07:06;;;;;;;5.63;5.00;;;;;;;10.14;100.00;97473.78;5093395;28;20262;-71
2021/05/13 01:09:32;;;;;;;5.40;4.60;;;;;;;10.11;100.00;97468.75;5092826;28;20246;-71
2021/05/13 01:12:01;;;;;;;5.00;4.43;;;;;;;10.11;100.00;97479.31;5093604;28;20641;-72
2021/05/13 01:14:30;;;;;;;6.83;4.97;;;;;;;10.09;100.00;97475.13;5093492;28;20215;-71
2021/05/13 01:17:01;;;;;;;7.00;4.93;;;;;;;10.06;100.00;97475.34;5093470;28;20294;-71
2021/05/13 01:19:29;;;;;;;5.40;4.67;;;;;;;10.03;100.00;97473.78;5091377;28;20434;-71
2021/05/13 01:21:56;;;;;;;5.47;4.80;;;;;;;10.02;100.00;97468.56;5093287;28;20212;-72
2021/05/13 01:24:23;;;;;;;6.03;4.70;;;;;;;10.01;100.00;97472.19;5092968;28;20674;-71
2021/05/13 01:26:50;;;;;;;6.83;5.17;;;;;;;9.98;100.00;97467.16;5092993;28;20215;-71
2021/05/13 01:29:20;;;;;;;7.37;5.10;;;;;;;9.99;100.00;97474.97;5093124;28;20672;-70
2021/05/13 01:31:46;;;;;;;6.07;5.47;;;;;;;9.98;100.00;97470.59;5093207;28;20202;-69
2021/05/13 01:34:12;;;;;;;5.00;4.57;;;;;;;9.98;100.00;97472.44;5092943;28;20205;-71
2021/05/13 01:36:38;;;;;;;6.00;5.20;;;;;;;9.99;100.00;97458.25;5092764;28;20212;-71
2021/05/13 01:39:07;;;;;;;6.10;5.10;;;;;;;9.98;100.00;97464.50;5093038;28;20208;-70
2021/05/13 01:41:33;;;;;;;5.47;4.97;;;;;;;9.99;100.00;97459.13;5093015;28;20207;-71
2021/05/13 01:43:59;;;;;;;5.43;4.83;;;;;;;10.00;100.00;97457.31;5093244;28;20578;-71
2021/05/13 01:46:25;;;;;;;5.67;4.83;;;;;;;10.00;100.00;97449.38;5091115;28;20698;-71
2021/05/13 01:48:52;;;;;;;5.47;4.97;;;;;;;9.99;100.00;97452.97;5092523;28;20226;-71
2021/05/13 01:51:18;;;;;;;6.80;5.63;;;;;;;9.97;100.00;97449.63;5092950;28;20300;-71
2021/05/13 01:53:44;;;;;;;6.30;5.57;;;;;;;9.97;100.00;97436.44;5092737;28;20574;-68
2021/05/13 01:56:12;;;;;;;5.93;5.30;;;;;;;9.98;100.00;97446.03;5092553;28;20672;-73
2021/05/13 01:58:40;;;;;;;5.90;5.20;;;;;;;9.97;100.00;97436.44;5092916;28;20209;-71
2021/05/13 02:01:09;;;;;;;5.40;4.90;;;;;;;10.00;100.00;97430.91;5092860;28;20264;-71
2021/05/13 02:03:36;;;;;;;5.30;4.80;;;;;;;9.97;100.00;97428.50;5092834;28;20211;-67
2021/05/13 02:06:02;;;;;;;6.00;5.40;;;;;;;9.94;100.00;97418.19;5096200;28;20322;-67
2021/05/13 02:08:28;;;;;;;9.27;5.47;;;;;;;9.93;100.00;97417.38;5096402;28;20235;-68
2021/05/13 02:10:54;;;;;;;8.10;6.80;;;;;;;9.93;100.00;97424.44;5096658;28;20623;-68
2021/05/13 02:13:21;;;;;;;7.70;6.23;;;;;;;9.96;100.00;97410.97;5094944;28;20204;-71
2021/05/13 02:15:47;;;;;;;6.90;6.20;;;;;;;9.97;100.00;97415.31;5096230;28;20207;-70
2021/05/13 02:18:13;;;;;;;7.43;6.33;;;;;;;9.97;100.00;97418.78;5096441;28;20242;-69
2021/05/13 02:20:39;;;;;;;9.77;7.50;;;;;;;9.95;100.00;97410.16;5096271;28;20665;-69
2021/05/13 02:23:05;;;;;;;7.50;6.70;;;;;;;9.95;100.00;97419.84;5096422;28;20255;-69
2021/05/13 02:25:32;;;;;;;11.77;7.77;;;;;;;9.95;100.00;97410.16;5096345;28;20214;-69
2021/05/13 02:27:58;;;;;;;7.97;6.87;;;;;;;9.94;100.00;97403.19;5096435;28;20230;-70
2021/05/13 02:30:25;;;;;;;9.17;6.87;;;;;;;9.90;100.00;97406.22;5096243;28;20256;-69
2021/05/13 02:32:51;;;;;;;6.50;5.83;;;;;;;9.88;100.00;97411.59;5096200;28;20211;-69
2021/05/13 02:35:18;;;;;;;7.20;6.10;;;;;;;9.87;100.00;97409.06;5096120;28;20207;-67
2021/05/13 02:37:44;;;;;;;6.27;5.77;;;;;;;9.83;100.00;97410.25;5094034;28;20263;-67
2021/05/13 02:40:12;;;;;;;7.27;5.67;;;;;;;9.78;100.00;97415.06;5096231;28;20217;-67
2021/05/13 02:42:38;;;;;;;6.37;5.77;;;;;;;9.74;100.00;97416.25;5096055;28;20236;-66
2021/05/13 02:45:06;;;;;;;6.67;5.53;;;;;;;9.68;100.00;97422.00;5095616;28;20671;-66
2021/05/13 02:47:33;;;;;;;6.10;5.07;;;;;;;9.65;100.00;97411.66;5095851;28;20207;-67
2021/05/13 02:49:59;;;;;;;6.20;5.27;;;;;;;9.60;100.00;97417.31;5095728;28;20205;-67
2021/05/13 02:52:25;;;;;;;6.20;5.53;;;;;;;9.52;100.00;97410.94;5095824;28;20218;-67
2021/05/13 02:54:51;;;;;;;7.63;5.60;;;;;;;9.45;100.00;97410.56;5095993;28;20208;-66
2021/05/13 02:57:17;;;;;;;5.67;5.00;;;;;;;9.43;100.00;97409.00;5095739;28;20305;-66
2021/05/13 02:59:45;;;;;;;6.10;5.40;;;;;;;9.44;100.00;97403.63;5095698;28;20220;-66
2021/05/13 03:02:12;;;;;;;6.33;5.73;;;;;;;9.47;100.00;97413.94;5095347;28;20217;-69
2021/05/13 03:04:40;;;;;;;8.07;5.27;;;;;;;9.50;100.00;97408.44;5093879;28;20605;-69
2021/05/13 03:07:06;;;;;;;5.70;5.10;;;;;;;9.54;100.00;97415.13;5095348;28;20215;-69
2021/05/13 03:09:35;;;;;;;6.73;5.60;;;;;;;9.55;100.00;97405.44;5095373;28;20242;-70
2021/05/13 03:12:01;;;;;;;5.70;5.10;;;;;;;9.54;100.00;97399.31;5095228;28;20229;-71
2021/05/13 03:14:27;;;;;;;6.87;5.70;;;;;;;9.54;100.00;97399.31;5095177;28;20206;-70
2021/05/13 03:16:54;;;;;;;6.77;6.00;;;;;;;9.54;100.00;97393.22;5095081;28;20223;-70
2021/05/13 03:19:25;;;;;;;7.67;6.30;;;;;;;9.61;100.00;97400.50;5095266;28;20303;-71
2021/05/13 03:21:55;;;;;;;10.17;7.30;;;;;;;9.65;100.00;97409.03;5095188;28;20270;-71
2021/05/13 03:24:28;;;;;;;7.47;6.77;;;;;;;9.71;100.00;97401.50;5094981;28;20629;-71
2021/05/13 03:27:02;;;;;;;7.50;6.80;;;;;;;9.78;100.00;97407.97;5095180;28;20220;-70
2021/05/13 03:29:28;;;;;;;9.50;7.10;;;;;;;9.79;100.00;97398.28;5094061;28;20243;-70
2021/05/13 03:31:54;;;;;;;7.03;6.33;;;;;;;9.83;100.00;97412.88;5094091;28;20217;-71
2021/05/13 03:34:20;;;;;;;8.13;6.47;;;;;;;9.85;100.00;97411.00;5094762;28;20570;-70
2021/05/13 03:36:46;;;;;;;7.17;6.43;;;;;;;9.89;100.00;97415.91;5095109;28;20220;-69
2021/05/13 03:39:12;;;;;;;7.67;6.57;;;;;;;9.88;100.00;97408.09;5094928;28;20210;-71
2021/05/13 03:41:38;;;;;;;6.20;5.53;;;;;;;9.90;100.00;97406.22;5094915;28;20562;-71
2021/05/13 03:44:05;;;;;;;6.90;5.87;;;;;;;9.90;100.00;97406.22;5095329;28;20217;-68
2021/05/13 03:46:31;;;;;;;6.77;6.07;;;;;;;9.90;100.00;97403.56;5095973;28;20215;-68
2021/05/13 03:48:58;;;;;;;6.20;5.60;;;;;;;9.89;100.00;97404.50;5095089;28;20250;-69
2021/05/13 03:51:24;;;;;;;9.07;6.60;;;;;;;9.81;100.00;97396.34;5094794;28;20210;-69
2021/05/13 03:53:50;;;;;;;6.73;6.03;;;;;;;9.76;100.00;97395.84;5094782;28;20209;-69
2021/05/13 03:56:17;;;;;;;8.20;6.47;;;;;;;9.70;100.00;97399.81;5093026;28;20208;-69
2021/05/13 03:58:47;;;;;;;6.07;5.47;;;;;;;9.69;100.00;97392.00;5094304;28;20683;-68
2021/05/13 04:01:16;;;;;;;8.07;6.53;;;;;;;9.67;100.00;97392.13;5094270;28;20209;-67
2021/05/13 04:03:42;;;;;;;7.57;6.00;;;;;;;9.64;100.00;97394.16;5094471;28;20293;-68
2021/05/13 04:06:08;;;;;;;7.90;6.13;;;;;;;9.65;100.00;97388.78;5094531;28;20239;-68
2021/05/13 04:08:34;;;;;;;7.47;6.47;;;;;;;9.60;100.00;97390.09;5094513;28;20283;-68
2021/05/13 04:11:00;;;;;;;6.90;6.20;;;;;;;9.56;100.00;97380.72;5094500;28;20216;-68
2021/05/13 04:13:27;;;;;;;7.23;6.13;;;;;;;9.45;100.00;97383.34;5094294;28;20210;-67
2021/05/13 04:15:54;;;;;;;7.90;7.10;;;;;;;9.38;100.00;97388.28;5094182;28;20267;-68
2021/05/13 04:18:20;;;;;;;9.20;6.73;;;;;;;9.38;100.00;97392.69;5093828;28;20207;-68
2021/05/13 04:20:46;;;;;;;8.70;7.77;;;;;;;9.37;100.00;97396.28;5093871;28;20213;-68
2021/05/13 04:23:12;;;;;;;9.93;7.47;;;;;;;9.42;100.00;97383.59;5092372;28;20270;-67
2021/05/13 04:25:38;;;;;;;10.43;6.97;;;;;;;9.39;100.00;97394.38;5094116;28;20217;-68
2021/05/13 04:28:04;;;;;;;9.67;7.43;;;;;;;9.36;100.00;97389.34;5093096;28;20582;-68
2021/05/13 04:30:31;;;;;;;7.90;6.93;;;;;;;9.27;100.00;97390.88;5093927;28;20224;-68
2021/05/13 04:32:57;;;;;;;9.00;7.37;;;;;;;9.19;100.00;97393.22;5093921;28;20276;-69
2021/05/13 04:35:25;;;;;;;8.40;7.43;;;;;;;9.16;100.00;97393.47;5093901;28;20639;-70
2021/05/13 04:37:51;;;;;;;8.50;7.57;;;;;;;9.14;100.00;97389.25;5093934;28;20295;-72
2021/05/13 04:40:18;;;;;;;8.43;6.30;;;;;;;9.07;100.00;97385.41;5094487;28;20601;-70
2021/05/13 04:42:44;;;;;;;7.80;7.00;;;;;;;8.96;100.00;97390.63;5094501;28;20205;-70
2021/05/13 04:45:10;;;;;;;8.43;6.53;;;;;;;8.95;100.00;97395.09;5096056;28;20232;-67
2021/05/13 04:47:52;;;;;;;8.17;6.83;;;;;;;8.94;100.00;97389.91;5095929;28;20210;-68
2021/05/13 04:50:19;;;;;;;7.77;6.73;;;;;;;8.97;100.00;97387.03;5096218;28;20599;-68
2021/05/13 04:52:45;;;;;;;8.53;7.00;;;;;;;9.01;100.00;97375.34;5096143;28;20215;-68
2021/05/13 04:55:12;;;;;;;8.90;6.70;;;;;;;9.09;100.00;97380.84;5096256;28;20207;-70
2021/05/13 04:57:38;;;;;;;6.93;6.23;;;;;;;9.16;100.00;97376.81;5095907;28;20217;-72
2021/05/13 05:00:06;;;;;;;7.97;6.53;;;;;;;9.20;100.00;97378.25;5096451;28;20230;-68
2021/05/13 05:02:32;;;;;;;8.20;6.73;;;;;;;9.24;100.00;97374.44;5096128;28;20573;-69
2021/05/13 05:04:59;;;;;;;7.50;6.70;;;;;;;9.36;100.00;97373.53;5095932;28;20241;-71
2021/05/13 05:07:25;;;;;;;9.07;7.53;;;;;;;9.55;100.00;97368.50;5096181;28;20260;-68
2021/05/13 05:09:51;;;;;;;9.70;7.00;;;;;;;9.76;100.00;97370.31;5095696;28;20237;-67
2021/05/13 05:12:17;;;;;;;9.73;8.40;;;;;;;10.00;100.00;97370.19;5095697;28;20573;-67
2021/05/13 05:14:43;;;;;;;10.27;8.43;;;;;;;10.25;100.00;97364.66;5094089;28;20212;-67
2021/05/13 05:17:09;;;;;;;9.83;8.83;;;;;;;10.58;100.00;97367.25;5095611;28;20265;-68
2021/05/13 05:19:35;;;;;;;12.23;10.27;;;;;;;10.90;100.00;97357.53;5095250;28;20267;-68
2021/05/13 05:22:04;;;;;;;12.70;9.13;;;;;;;11.26;100.00;97365.88;5095111;28;20216;-68
2021/05/13 05:24:30;;;;;;;9.23;8.33;;;;;;;11.46;100.00;97356.25;5095116;28;20213;-68
2021/05/13 05:26:56;;;;;;;8.43;7.50;;;;;;;12.15;100.00;97360.78;5095096;28;20213;-68
2021/05/13 05:29:22;;;;;;;9.23;7.37;;;;;;;13.45;100.00;97361.25;5093177;28;20238;-68
2021/05/13 05:31:48;;;;;;;9.23;6.83;;;;;;;14.63;95.61;97351.56;5093155;28;20213;-67
2021/05/13 05:34:14;;;;;;;9.27;6.27;;;;;;;15.68;87.64;97352.38;5093224;28;20241;-68
2021/05/13 05:36:40;;;;;;;6.60;5.87;;;;;;;16.50;81.65;97357.03;5093333;28;20202;-69
2021/05/13 05:39:07;;;;;;;6.83;6.20;;;;;;;17.17;77.01;97348.84;5095359;28;20680;-69
2021/05/13 05:41:33;;;;;;;8.90;5.93;;;;;;;17.52;73.22;97348.56;5095401;28;20207;-68
2021/05/13 05:43:59;;;;;;;7.60;5.47;;;;;;;17.08;75.63;97352.50;5096892;28;20257;-68
2021/05/13 05:46:25;;;;;;;6.40;5.80;;;;;;;16.83;76.51;97353.44;5097097;28;20211;-68
2021/05/13 05:48:51;;;;;;;6.80;4.93;;;;;;;17.32;74.15;97349.84;5096892;28;20280;-70
2021/05/13 05:51:17;;;;;;;5.97;5.33;;;;;;;17.95;71.73;97364.22;5096814;28;20262;-70
2021/05/13 05:53:44;;;;;;;5.17;4.63;;;;;;;18.59;69.74;97350.63;5097969;28;20209;-70
2021/05/13 05:56:11;;;;;;;6.10;4.87;;;;;;;19.16;67.40;97353.84;5099270;28;20281;-70
2021/05/13 05:58:37;;;;;;;5.10;4.57;;;;;;;19.59;65.02;97355.88;5096658;28;20207;-70
2021/05/13 06:01:03;;;;;;;6.27;4.93;;;;;;;19.94;63.77;97361.41;5096724;28;20216;-70
2021/05/13 06:03:29;;;;;;;4.80;4.30;;;;;;;20.19;61.95;97357.50;5096485;28;20689;-68
2021/05/13 06:05:55;;;;;;;4.80;4.40;;;;;;;20.42;60.87;97360.94;5095724;28;20238;-67
2021/05/13 06:08:21;;;;;;;5.27;4.33;;;;;;;20.66;60.31;97355.25;5096342;28;20237;-68
2021/05/13 06:10:47;;;;;;;4.03;3.53;;;;;;;20.86;58.62;97359.03;5096815;28;20218;-68
2021/05/13 06:13:14;;;;;;;4.10;3.67;;;;;;;21.02;57.68;97355.34;5096638;28;20214;-68
2021/05/13 06:15:41;;;;;;;4.20;3.80;;;;;;;21.08;56.42;97350.03;5096476;28;20214;-68
2021/05/13 06:18:08;;;;;;;4.80;3.87;;;;;;;21.20;56.32;97351.19;5096122;28;20735;-68
2021/05/13 06:20:35;;;;;;;5.23;3.87;;;;;;;21.16;54.81;97357.97;5096432;28;20213;-68
2021/05/13 06:23:02;;;;;;;4.50;4.10;;;;;;;21.13;55.30;97347.59;5096400;28;20207;-68
2021/05/13 06:25:28;;;;;;;5.70;4.07;;;;;;;21.18;54.70;97355.94;5096395;28;20222;-68
2021/05/13 06:27:56;;;;;;;4.17;3.77;;;;;;;21.35;56.14;97357.34;5096036;28;20210;-69
2021/05/13 06:30:24;;;;;;;4.87;3.50;;;;;;;21.55;54.33;97352.16;5096465;28;20578;-69
2021/05/13 06:32:50;;;;;;;4.10;3.70;;;;;;;20.87;55.86;97354.50;5094641;28;20207;-68
2021/05/13 06:35:18;;;;;;;4.80;4.00;;;;;;;20.43;57.82;97351.84;5096323;28;20273;-68
2021/05/13 06:37:45;;;;;;;4.87;3.70;;;;;;;20.47;56.65;97350.47;5095906;28;20214;-68
2021/05/13 06:40:13;;;;;;;4.47;3.47;;;;;;;20.57;56.09;97355.56;5096141;28;20211;-69
2021/05/13 06:42:39;;;;;;;4.37;3.93;;;;;;;20.46;56.09;97358.69;5096057;28;20301;-69
2021/05/13 06:45:06;;;;;;;4.67;3.47;;;;;;;20.18;57.34;97352.34;5096038;28;20207;-69
2021/05/13 06:47:34;;;;;;;4.93;3.37;;;;;;;19.29;58.58;97357.63;5095625;28;20672;-69
2021/05/13 06:50:00;;;;;;;3.73;3.00;;;;;;;17.98;64.24;97352.34;5094774;28;20245;-69
2021/05/13 06:52:26;;;;;;;4.00;3.47;;;;;;;16.94;68.34;97350.47;5095940;28;20202;-69
2021/05/13 06:54:52;;;;;;;3.50;3.20;;;;;;;16.22;72.50;97358.19;5095628;28;20305;-72
2021/05/13 06:57:18;;;;;;;5.03;3.97;;;;;;;15.86;76.34;97355.00;5095958;28;20600;-72
2021/05/13 06:59:45;;;;;;;5.27;3.60;;;;;;;15.55;77.99;97353.78;5094251;28;20244;-72
2021/05/13 07:02:12;;;;;;;5.70;3.93;;;;;;;15.42;78.25;97356.88;5095614;28;20214;-68
2021/05/13 07:04:40;;;;;;;4.33;3.73;;;;;;;15.22;78.49;97355.31;5095444;28;20245;-68
2021/05/13 07:07:06;;;;;;;6.03;3.70;;;;;;;15.10;80.74;97356.53;5095862;28;20213;-68
2021/05/13 07:09:32;;;;;;;6.23;3.60;;;;;;;15.01;80.73;97348.63;5095571;28;20236;-68
2021/05/13 07:11:59;;;;;;;3.50;3.10;;;;;;;15.00;81.14;97354.94;5095691;28;20224;-68
2021/05/13 07:14:25;;;;;;;4.47;3.17;;;;;;;15.02;81.11;97350.31;5095157;28;20256;-68
2021/05/13 07:16:51;;;;;;;4.03;2.60;;;;;;;15.02;76.03;97345.00;5095334;28;20219;-68
2021/05/13 07:19:18;;;;;;;3.03;2.60;;;;;;;15.02;75.68;97340.50;5095121;28;20239;-68
2021/05/13 07:21:46;;;;;;;3.43;2.47;;;;;;;15.08;77.55;97333.72;5095352;28;20552;-68
2021/05/13 07:24:12;;;;;;;4.57;2.27;;;;;;;15.14;77.15;97343.75;5093559;28;20349;-68
2021/05/13 07:26:38;;;;;;;5.03;2.73;;;;;;;15.17;74.08;97338.13;5095183;28;20263;-68
2021/05/13 07:29:05;;;;;;;2.80;2.23;;;;;;;15.21;78.68;97343.00;5095044;28;20228;-68
2021/05/13 07:31:31;;;;;;;3.23;2.13;;;;;;;15.31;74.73;97340.25;5094823;28;20216;-68
2021/05/13 07:33:57;;;;;;;3.00;2.23;;;;;;;15.22;70.63;97343.84;5093508;28;20209;-68
2021/05/13 07:36:23;;;;;;;3.37;2.50;;;;;;;15.23;72.77;97341.03;5092691;28;20213;-68
2021/05/13 07:38:50;;;;;;;5.50;2.63;;;;;;;15.31;73.60;97343.75;5093701;28;20222;-67
2021/05/13 07:41:16;;;;;;;3.00;2.57;;;;;;;15.37;74.39;97342.31;5093969;28;20258;-67
2021/05/13 07:43:43;;;;;;;2.80;2.50;;;;;;;15.40;73.42;97339.38;5092256;28;20618;-67
2021/05/13 07:46:10;;;;;;;3.70;2.97;;;;;;;15.39;71.77;97341.19;5092616;28;20698;-68
2021/05/13 07:48:36;;;;;;;3.27;2.47;;;;;;;15.45;67.39;97334.41;5093587;28;20223;-67
2021/05/13 07:51:02;;;;;;;4.17;1.97;;;;;;;15.43;66.22;97336.38;5091438;28;20606;-67
2021/05/13 07:53:28;;;;;;;3.63;2.10;;;;;;;15.43;64.06;97336.38;5093459;28;20211;-68
2021/05/13 07:55:55;;;;;;;2.50;1.80;;;;;;;15.40;66.02;97332.19;5093672;28;20209;-68
2021/05/13 07:58:22;;;;;;;4.63;1.93;;;;;;;15.51;67.11;97334.63;5092872;28;20593;-67
2021/05/13 08:00:48;;;;;;;4.70;2.00;;;;;;;15.68;67.55;97332.91;5093734;28;20204;-67
2021/05/13 08:03:14;;;;;;;4.40;2.20;;;;;;;15.75;67.79;97333.94;5093049;28;20626;-68
2021/05/13 08:05:40;;;;;;;2.20;2.00;;;;;;;15.71;67.26;97325.41;5092471;28;20244;-69
2021/05/13 08:08:06;;;;;;;2.77;2.23;;;;;;;15.78;69.69;97320.31;5093211;28;20213;-68
2021/05/13 08:10:33;;;;;;;3.50;2.13;;;;;;;15.89;68.11;97322.72;5093537;28;20268;-68
2021/05/13 08:13:00;;;;;;;2.63;2.07;;;;;;;15.98;69.69;97327.06;5092344;28;20668;-68
2021/05/13 08:15:27;;;;;;;4.87;2.10;;;;;;;16.07;67.14;97328.81;5092862;28;20259;-68
2021/05/13 08:17:53;;;;;;;2.43;1.90;;;;;;;16.07;66.80;97321.63;5091367;28;20219;-68
2021/05/13 08:20:20;;;;;;;2.43;1.80;;;;;;;16.09;66.85;97322.31;5092547;28;20210;-68
2021/05/13 08:22:47;;;;;;;3.70;2.10;;;;;;;16.25;73.25;97315.22;5093369;28;20213;-68
2021/05/13 08:25:18;;;;;;;2.43;1.57;;;;;;;16.35;73.57;97315.91;5092982;28;20343;-67
2021/05/13 08:27:44;;;;;;;2.50;2.00;;;;;;;16.49;70.75;97312.69;5092473;28;20225;-69
2021/05/13 08:30:12;;;;;;;2.40;1.70;;;;;;;16.60;70.64;97306.19;5093196;28;20242;-69
2021/05/13 08:32:38;;;;;;;2.13;1.93;;;;;;;16.75;72.67;97305.41;5093295;28;20222;-68
2021/05/13 08:35:05;;;;;;;4.93;2.30;;;;;;;16.93;72.17;97315.94;5091717;28;20283;-68
2021/05/13 08:37:31;;;;;;;2.67;2.27;;;;;;;17.02;72.02;97315.78;5093089;28;20521;-68
2021/05/13 08:39:57;;;;;;;5.57;2.40;;;;;;;17.01;64.44;97313.28;5092892;28;20637;-69
2021/05/13 08:42:23;;;;;;;3.47;2.20;;;;;;;17.05;65.50;97304.78;5092190;28;20309;-68
2021/05/13 08:44:49;;;;;;;3.07;1.80;;;;;;;17.06;67.63;97306.44;5089743;28;20294;-68
2021/05/13 08:47:16;;;;;;;3.50;2.10;;;;;;;17.09;66.42;97306.13;5091259;28;20217;-67
2021/05/13 08:49:42;;;;;;;3.17;2.07;;;;;;;17.16;64.47;97299.13;5093422;28;20226;-68
2021/05/13 08:52:09;;;;;;;3.13;2.20;;;;;;;17.29;66.76;97295.91;5093423;28;20679;-67
2021/05/13 08:54:35;;;;;;;4.30;2.40;;;;;;;17.44;66.96;97292.44;5093495;28;20210;-66
2021/05/13 08:57:01;;;;;;;4.60;2.20;;;;;;;17.51;64.79;97296.13;5093551;28;20214;-67
2021/05/13 08:59:28;;;;;;;3.87;2.10;;;;;;;17.65;63.68;97292.75;5093194;28;20693;-67
2021/05/13 09:01:56;;;;;;;2.63;1.90;;;;;;;17.83;61.07;97298.75;5093126;28;20271;-68
2021/05/13 09:04:23;;;;;;;1.30;1.20;;;;;;;17.84;55.62;97292.38;5093242;28;20234;-68
2021/05/13 09:06:49;;;;;;;3.23;1.30;;;;;;;17.90;53.50;97291.69;5093381;28;20203;-68
2021/05/13 09:09:17;;;;;;;2.73;1.20;;;;;;;17.90;51.71;97285.50;5093230;28;20300;-68
2021/05/13 09:11:50;;;;;;;2.90;1.30;;;;;;;17.85;51.44;97288.69;5091472;28;20218;-67
2021/05/13 09:14:21;;;;;;;2.73;1.50;;;;;;;17.94;49.14;97282.34;5093100;28;20209;-67
2021/05/13 09:16:49;;;;;;;2.60;1.57;;;;;;;17.89;50.50;97275.81;5095925;28;20210;-68
2021/05/13 09:19:27;;;;;;;3.07;1.47;;;;;;;17.77;52.91;97280.72;5094182;28;20291;-67
2021/05/13 09:21:57;;;;;;;1.40;1.07;;;;;;;17.88;57.76;97266.97;5093124;28;20216;-68
2021/05/13 09:24:43;;;;;;;3.37;1.40;;;;;;;18.06;50.76;97275.63;5093391;28;20567;-67
2021/05/13 09:27:20;;;;;;;2.83;1.10;;;;;;;18.11;50.38;97272.41;5093345;28;20210;-67
2021/05/13 09:29:47;;;;;;;3.63;1.30;;;;;;;18.03;48.97;97270.59;5093180;28;20283;-67
2021/05/13 09:32:15;;;;;;;2.10;1.00;;;;;;;18.01;47.80;97274.44;5092905;28;20214;-68
2021/05/13 09:34:42;;;;;;;1.27;0.90;;;;;;;18.15;50.95;97266.53;5092822;28;20739;-67
2021/05/13 09:37:08;;;;;;;1.63;0.70;;;;;;;18.42;52.09;97262.59;5091373;28;20253;-68
2021/05/13 09:39:34;;;;;;;2.40;1.13;;;;;;;18.63;52.53;97268.16;5092790;28;20215;-67
2021/05/13 09:42:01;;;;;;;2.07;0.80;;;;;;;18.73;51.47;97260.75;5092508;28;20337;-67
2021/05/13 09:44:33;;;;;;;3.50;1.40;;;;;;;18.58;50.13;97254.47;5092812;28;20210;-67
2021/05/13 09:47:12;;;;;;;2.43;1.30;;;;;;;18.41;48.39;97260.94;5092671;28;20736;-67
2021/05/13 09:49:52;;;;;;;1.90;1.27;;;;;;;18.41;47.16;97253.72;5092803;28;20235;-67
2021/05/13 09:52:45;;;;;;;2.73;2.00;;;;;;;18.40;48.58;97245.91;5092641;28;20214;-67
2021/05/13 09:55:20;;;;;;;3.67;1.70;;;;;;;18.39;49.15;97250.41;5092639;28;20660;-68
2021/05/13 09:58:00;;;;;;;2.40;1.17;;;;;;;18.42;49.48;97246.56;5093003;28;20667;-67
2021/05/13 10:00:42;;;;;;;1.20;1.07;;;;;;;18.62;50.02;97245.94;5092706;28;20210;-68
2021/05/13 10:03:12;;;;;;;2.10;1.00;;;;;;;18.79;49.76;97252.00;5090156;28;20271;-68
2021/05/13 10:05:41;;;;;;;0.80;0.80;;;;;;;18.99;47.97;97248.66;5092133;28;20704;-68
2021/05/13 10:08:08;;;;;;;1.60;1.30;;;;;;;19.05;46.86;97244.44;5092508;28;20203;-68
2021/05/13 10:10:35;;;;;;;2.43;1.27;;;;;;;19.04;47.95;97246.28;5092725;28;20234;-67
2021/05/13 10:13:01;;;;;;;4.40;1.50;;;;;;;19.14;45.78;97246.84;5092694;28;20213;-68
2021/05/13 10:15:28;;;;;;;2.13;1.30;;;;;;;19.20;46.74;97245.31;5092574;28;20234;-67
2021/05/13 10:17:57;;;;;;;2.97;1.77;;;;;;;19.30;47.60;97254.81;5092614;28;20206;-67
2021/05/13 10:20:25;;;;;;;1.33;1.13;;;;;;;19.41;49.69;97248.16;5092736;28;20650;-67
2021/05/13 10:22:53;;;;;;;1.73;1.40;;;;;;;19.54;48.99;97246.53;5092434;28;20211;-68
2021/05/13 10:25:30;;;;;;;2.47;1.30;;;;;;;19.64;47.42;97244.41;5093752;28;20214;-67
2021/05/13 10:27:58;;;;;;;3.37;1.40;;;;;;;19.71;48.64;97250.72;5096217;28;20563;-68
2021/05/13 10:30:27;;;;;;;1.37;1.20;;;;;;;19.80;49.35;97243.44;5094670;28;20324;-67
2021/05/13 10:33:18;;;;;;;2.33;1.50;;;;;;;19.89;48.68;97240.47;5096257;28;20217;-68
2021/05/13 10:36:07;;;;;;;1.57;1.10;;;;;;;19.87;47.75;97241.66;5093021;28;20211;-68
2021/05/13 10:38:42;;;;;;;2.27;1.20;;;;;;;19.81;49.31;97240.53;5096256;28;20309;-68
2021/05/13 10:41:31;;;;;;;2.93;1.10;;;;;;;19.68;48.60;97243.03;5096032;28;20626;-68
2021/05/13 10:43:58;;;;;;;2.53;1.10;;;;;;;19.47;45.69;97236.72;5095907;28;20215;-68
2021/05/13 10:46:26;;;;;;;2.70;1.20;;;;;;;19.26;47.52;97229.38;5095982;28;20683;-68
2021/05/13 10:48:52;;;;;;;2.37;1.23;;;;;;;19.18;48.37;97233.94;5095747;28;20574;-68
2021/05/13 10:51:25;;;;;;;2.80;0.90;;;;;;;19.13;47.36;97229.13;5095857;28;20203;-69
2021/05/13 10:53:52;;;;;;;2.73;1.17;;;;;;;19.15;47.51;97232.44;5095523;28;20214;-69
2021/05/13 10:56:24;;;;;;;2.37;1.17;;;;;;;19.23;48.71;97229.75;5094029;28;20210;-68
2021/05/13 10:59:14;;;;;;;2.60;1.20;;;;;;;19.49;48.93;97224.81;5095833;28;20246;-68
2021/05/13 11:01:46;;;;;;;2.67;1.43;;;;;;;19.70;48.98;97227.59;5080522;28;20209;-68
2021/05/13 11:04:39;;;;;;;3.90;1.33;;;;;;;19.84;48.52;97229.47;5095166;28;20229;-68
2021/05/13 11:07:06;;;;;;;7.07;1.80;;;;;;;19.87;48.99;97225.56;5095485;28;20235;-69
2021/05/13 11:09:53;;;;;;;2.27;1.20;;;;;;;19.94;49.46;97230.00;5095367;28;20234;-69
2021/05/13 11:12:20;;;;;;;2.00;1.10;;;;;;;20.09;49.20;97220.13;5095437;28;20216;-68
2021/05/13 11:15:07;;;;;;;2.90;1.40;;;;;;;19.85;48.03;97224.91;5095294;28;20214;-68
2021/05/13 11:18:13;;;;;;;2.43;1.17;;;;;;;19.92;49.71;97232.03;5095149;28;20699;-68
2021/05/13 11:20:58;;;;;;;2.97;1.10;;;;;;;20.07;47.21;97227.53;5095345;28;20242;-68
2021/05/13 11:23:27;;;;;;;1.63;1.40;;;;;;;19.97;46.75;97235.00;5093285;28;20210;-68
2021/05/13 11:25:56;;;;;;;2.80;1.30;;;;;;;19.78;48.42;97232.88;5095337;28;20219;-68
2021/05/13 11:28:28;;;;;;;3.90;1.30;;;;;;;19.88;50.06;97230.72;5095000;28;20550;-68
2021/05/13 11:30:56;;;;;;;2.00;1.37;;;;;;;19.89;52.25;97232.41;5094698;28;20214;-68
2021/05/13 11:33:23;;;;;;;1.90;1.30;;;;;;;19.59;52.73;97230.75;5094988;28;20210;-68
2021/05/13 11:35:49;;;;;;;1.50;1.20;;;;;;;19.41;54.28;97227.56;5094660;28;20206;-68